Time;durP1;ratioP1;P1;durP2;ratioP2;P2;SDS_P1;SDS_P2;PMS_P1;PMS_P2;Temp;Humidity;BMP_temperature;BMP_pressure;BME280_temperature;BME280_humidity;BME280_pressure;Samples;Min_cycle;Max_cycle;Signal;HPM_P1;HPM_P2
2023/05/07 00:02:25;;;;;;;48.80;28.67;;;358.90;2329.60;;;;;;5049320;28;20437;-63
2023/05/07 00:04:51;;;;;;;9.80;7.72;;;359.00;2329.60;;;;;;5049813;28;20374;-63
2023/05/07 00:07:18;;;;;;;9.13;5.82;;;359.00;2329.60;;;;;;5049436;28;20064;-63
2023/05/07 00:09:43;;;;;;;8.70;5.47;;;358.90;2329.60;;;;;;5049015;28;20029;-64
2023/05/07 00:12:10;;;;;;;77.70;45.78;;;358.80;2329.60;;;;;;5049155;28;20025;-63
2023/05/07 00:14:36;;;;;;;25.00;13.43;;;358.80;2329.60;;;;;;5049190;28;20037;-64
2023/05/07 00:17:01;;;;;;;10.25;6.60;;;358.70;2329.60;;;;;;5049344;28;20016;-63
2023/05/07 00:19:27;;;;;;;54.08;32.25;;;358.70;2329.60;;;;;;5049451;28;20037;-62
2023/05/07 00:21:56;;;;;;;16.38;9.70;;;358.60;2329.60;;;;;;5049154;28;20029;-65
2023/05/07 00:24:22;;;;;;;10.98;7.57;;;358.60;2329.60;;;;;;5048970;28;20017;-63
2023/05/07 00:26:48;;;;;;;10.70;7.65;;;358.50;2329.60;;;;;;5049486;28;20550;-63
2023/05/07 00:29:14;;;;;;;8.40;5.90;;;358.50;2329.60;;;;;;5048571;28;20020;-64
2023/05/07 00:31:39;;;;;;;8.20;6.25;;;358.40;2329.60;;;;;;5049472;28;20052;-63
2023/05/07 00:34:05;;;;;;;9.13;6.07;;;358.50;2329.60;;;;;;5048881;28;20096;-64
2023/05/07 00:36:31;;;;;;;9.00;6.50;;;333.70;2329.60;;;;;;5049428;28;20086;-63
2023/05/07 00:38:59;;;;;;;9.25;5.95;;;333.70;2329.60;;;;;;5048956;28;20670;-64
2023/05/07 00:41:26;;;;;;;9.07;6.18;;;333.70;2329.60;;;;;;5049262;28;20067;-64
2023/05/07 00:43:52;;;;;;;7.57;5.18;;;333.70;2329.60;;;;;;5048798;28;20540;-63
2023/05/07 00:46:21;;;;;;;7.57;5.10;;;333.60;2329.60;;;;;;5048643;28;20045;-64
2023/05/07 00:48:48;;;;;;;9.30;5.82;;;333.50;2329.60;;;;;;5049211;28;20103;-63
2023/05/07 00:51:14;;;;;;;6.72;5.32;;;333.40;2329.60;;;;;;5048965;28;20056;-64
2023/05/07 00:53:39;;;;;;;7.00;5.00;;;333.20;2329.60;;;;;;5049059;28;20033;-63
2023/05/07 00:56:06;;;;;;;7.82;5.75;;;333.30;2329.60;;;;;;5048870;28;20049;-63
2023/05/07 00:58:33;;;;;;;7.63;4.93;;;333.40;2329.60;;;;;;5048566;28;20527;-62
2023/05/07 01:00:59;;;;;;;8.25;5.90;;;333.40;2329.60;;;;;;5048580;28;20483;-63
2023/05/07 01:03:25;;;;;;;6.93;5.55;;;333.40;2329.60;;;;;;5048632;28;20025;-64
2023/05/07 01:05:53;;;;;;;5.40;4.60;;;333.40;2329.60;;;;;;5048973;28;20033;-63
2023/05/07 01:08:21;;;;;;;6.88;5.63;;;333.50;2329.60;;;;;;5048813;28;20045;-63
2023/05/07 01:10:47;;;;;;;8.32;5.85;;;333.30;2329.60;;;;;;5048627;28;20498;-63
2023/05/07 01:13:14;;;;;;;8.68;5.35;;;333.20;2329.60;;;;;;5048692;28;20021;-64
2023/05/07 01:15:41;;;;;;;6.35;4.88;;;333.20;2329.60;;;;;;5048346;28;20075;-62
2023/05/07 01:18:07;;;;;;;9.38;6.57;;;333.20;2329.60;;;;;;5048895;28;20154;-63
2023/05/07 01:20:33;;;;;;;6.90;5.07;;;333.00;2329.60;;;;;;5048610;28;20037;-63
2023/05/07 01:23:00;;;;;;;8.25;6.20;;;333.00;2329.60;;;;;;5046550;28;20017;-62
2023/05/07 01:25:26;;;;;;;7.32;5.45;;;333.10;2329.60;;;;;;5048578;28;20033;-63
2023/05/07 01:27:52;;;;;;;24.85;19.10;;;333.00;2329.60;;;;;;5048414;28;20025;-63
2023/05/07 01:30:20;;;;;;;7.93;6.03;;;332.90;2329.60;;;;;;5048764;28;20355;-63
2023/05/07 01:33:01;;;;;;;12.85;6.15;;;332.90;2329.60;;;;;;5048912;28;20497;-63
2023/05/07 01:35:37;;;;;;;10.20;6.35;;;332.80;2329.60;;;;;;5048692;28;20032;-63
2023/05/07 01:38:05;;;;;;;8.75;5.85;;;308.10;2304.00;;;;;;5048430;28;20031;-63
2023/05/07 01:40:31;;;;;;;9.68;6.88;;;308.10;2304.00;;;;;;5047044;28;20491;-63
2023/05/07 01:42:57;;;;;;;9.57;7.03;;;308.10;2304.00;;;;;;5048451;28;20099;-63
2023/05/07 01:45:23;;;;;;;8.23;6.18;;;307.90;2304.00;;;;;;5047871;28;20017;-64
2023/05/07 01:47:50;;;;;;;16.23;8.45;;;307.70;2304.00;;;;;;5048970;28;20411;-63
2023/05/07 01:50:18;;;;;;;22.45;16.40;;;307.80;2304.00;;;;;;5048077;28;20021;-63
2023/05/07 01:52:44;;;;;;;38.25;24.17;;;307.80;2304.00;;;;;;5048206;28;20506;-63
2023/05/07 01:55:09;;;;;;;17.55;11.05;;;308.00;2304.00;;;;;;5047936;28;20033;-62
2023/05/07 01:57:35;;;;;;;57.88;32.95;;;308.00;2304.00;;;;;;5048962;28;20032;-63
2023/05/07 02:00:02;;;;;;;21.10;12.77;;;308.00;2304.00;;;;;;5051461;28;20017;-64
2023/05/07 02:02:28;;;;;;;13.75;10.00;;;308.00;2304.00;;;;;;5052043;28;20029;-63
2023/05/07 02:04:54;;;;;;;8.48;6.35;;;307.90;2304.00;;;;;;5051933;28;20024;-64
2023/05/07 02:07:19;;;;;;;9.27;6.57;;;308.00;2304.00;;;;;;5052209;28;20037;-63
2023/05/07 02:09:45;;;;;;;8.85;5.97;;;307.90;2304.00;;;;;;5051680;28;20417;-63
2023/05/07 02:12:11;;;;;;;11.68;8.02;;;307.80;2304.00;;;;;;5040221;28;20021;-64
2023/05/07 02:14:36;;;;;;;6.72;5.63;;;307.90;2304.00;;;;;;5050174;28;20029;-62
2023/05/07 02:17:02;;;;;;;7.57;5.53;;;307.80;2304.00;;;;;;5040052;28;20021;-63
2023/05/07 02:19:28;;;;;;;12.45;8.20;;;307.60;2304.00;;;;;;5049979;28;20375;-63
2023/05/07 02:21:54;;;;;;;47.38;27.77;;;307.60;2304.00;;;;;;5051405;28;20087;-62
2023/05/07 02:24:19;;;;;;;8.30;6.15;;;307.70;2304.00;;;;;;5051118;28;20013;-63
2023/05/07 02:26:45;;;;;;;175.05;99.18;;;307.70;2304.00;;;;;;5051311;28;20036;-64
2023/05/07 02:29:11;;;;;;;32.70;19.33;;;307.80;2304.00;;;;;;5051154;28;20075;-62
2023/05/07 02:31:36;;;;;;;9.55;5.68;;;307.80;2304.00;;;;;;5051688;28;20025;-63
2023/05/07 02:34:02;;;;;;;12.65;7.55;;;307.60;2304.00;;;;;;5050696;28;20079;-63
2023/05/07 02:36:28;;;;;;;46.60;22.60;;;307.60;2304.00;;;;;;5051511;28;20021;-62
2023/05/07 02:38:54;;;;;;;57.20;29.55;;;307.50;2304.00;;;;;;5037915;28;20101;-63
2023/05/07 02:41:20;;;;;;;83.07;39.28;;;307.40;2304.00;;;;;;5051697;28;20455;-63
2023/05/07 02:43:46;;;;;;;18.15;12.43;;;307.50;2304.00;;;;;;5051158;28;20468;-63
2023/05/07 02:46:12;;;;;;;10.48;7.70;;;307.50;2304.00;;;;;;5050705;28;20032;-62
2023/05/07 02:48:37;;;;;;;13.82;7.53;;;307.40;2304.00;;;;;;5050964;28;20056;-64
2023/05/07 02:51:04;;;;;;;228.27;102.88;;;307.40;2304.00;;;;;;5050792;28;20494;-62
2023/05/07 02:53:30;;;;;;;104.78;43.10;;;307.40;2304.00;;;;;;5050544;28;20032;-62
2023/05/07 02:55:57;;;;;;;152.73;69.70;;;307.40;2304.00;;;;;;5050751;28;20048;-62
2023/05/07 02:58:23;;;;;;;146.73;65.05;;;307.60;2304.00;;;;;;5050410;28;20025;-62
2023/05/07 03:00:49;;;;;;;115.13;48.00;;;307.60;2304.00;;;;;;5050572;28;20467;-61
2023/05/07 03:03:15;;;;;;;13.18;7.95;;;307.70;2304.00;;;;;;5050606;28;20030;-63
2023/05/07 03:05:41;;;;;;;8.88;6.18;;;307.80;2304.00;;;;;;5050159;28;20035;-63
2023/05/07 03:08:07;;;;;;;231.88;100.97;;;307.70;2304.00;;;;;;5050296;28;20348;-62
2023/05/07 03:10:33;;;;;;;86.45;42.97;;;307.80;2304.00;;;;;;5050285;28;20036;-62
2023/05/07 03:12:59;;;;;;;114.07;56.08;;;307.80;2304.00;;;;;;5049231;28;20037;-64
2023/05/07 03:15:25;;;;;;;23.10;12.45;;;307.80;2304.00;;;;;;5050333;28;20029;-63
2023/05/07 03:17:50;;;;;;;14.75;7.40;;;307.90;2304.00;;;;;;5050234;28;20025;-63
2023/05/07 03:20:16;;;;;;;7.25;5.65;;;307.80;2304.00;;;;;;5050197;28;20040;-63
2023/05/07 03:22:42;;;;;;;8.80;6.57;;;307.70;2304.00;;;;;;5050228;28;20025;-63
2023/05/07 03:25:10;;;;;;;8.15;6.18;;;307.60;2304.00;;;;;;5050290;28;20025;-63
2023/05/07 03:27:36;;;;;;;9.43;5.57;;;307.50;2304.00;;;;;;5050517;28;20033;-63
2023/05/07 03:30:02;;;;;;;7.30;5.38;;;307.50;2304.00;;;;;;5050324;28;20351;-63
2023/05/07 03:32:28;;;;;;;7.00;5.18;;;307.50;2304.00;;;;;;5050239;28;20032;-63
2023/05/07 03:34:54;;;;;;;8.05;5.85;;;307.50;2304.00;;;;;;5050232;28;20432;-63
2023/05/07 03:37:19;;;;;;;7.95;4.65;;;307.60;2304.00;;;;;;5050274;28;20017;-63
2023/05/07 03:39:45;;;;;;;21.10;12.60;;;307.60;2304.00;;;;;;5049973;28;20505;-63
2023/05/07 03:42:11;;;;;;;8.82;5.93;;;307.50;2304.00;;;;;;5049729;28;20063;-63
2023/05/07 03:44:36;;;;;;;7.43;5.22;;;307.60;2304.00;;;;;;5038893;28;20017;-62
2023/05/07 03:47:03;;;;;;;5.90;5.13;;;307.80;2304.00;;;;;;5047527;28;20036;-63
2023/05/07 03:49:28;;;;;;;6.97;5.30;;;307.80;2304.00;;;;;;5049846;28;20021;-62
2023/05/07 03:51:55;;;;;;;6.53;5.10;;;307.90;2304.00;;;;;;5049779;28;20036;-62
2023/05/07 03:54:21;;;;;;;8.93;6.57;;;307.90;2304.00;;;;;;5049324;28;20025;-63
2023/05/07 03:56:46;;;;;;;16.90;11.00;;;308.10;2304.00;;;;;;5049678;28;20048;-63
2023/05/07 03:59:13;;;;;;;7.50;5.43;;;308.10;2304.00;;;;;;5049459;28;20028;-63
2023/05/07 04:01:39;;;;;;;7.53;5.20;;;308.00;2304.00;;;;;;5049635;28;20086;-61
2023/05/07 04:04:05;;;;;;;8.13;4.93;;;308.00;2304.00;;;;;;5049512;28;20021;-63
2023/05/07 04:06:31;;;;;;;6.18;4.90;;;307.80;2304.00;;;;;;5049292;28;20120;-63
2023/05/07 04:08:57;;;;;;;6.82;5.00;;;308.10;2304.00;;;;;;5049641;28;20024;-63
2023/05/07 04:11:23;;;;;;;13.65;8.07;;;332.90;2329.60;;;;;;5049189;28;20110;-63
2023/05/07 04:13:49;;;;;;;13.50;8.57;;;333.00;2329.60;;;;;;5049659;28;20032;-65
2023/05/07 04:16:14;;;;;;;17.02;11.10;;;333.10;2329.60;;;;;;5031580;28;20395;-62
2023/05/07 04:18:40;;;;;;;14.60;10.43;;;333.30;2329.60;;;;;;5039460;28;20112;-62
2023/05/07 04:21:13;;;;;;;6.68;5.00;;;333.30;2329.60;;;;;;5048539;28;20035;-63
2023/05/07 04:23:39;;;;;;;6.90;4.95;;;333.40;2329.60;;;;;;5037912;28;20034;-62
2023/05/07 04:26:04;;;;;;;6.35;4.82;;;333.30;2329.60;;;;;;5047378;28;20033;-63
2023/05/07 04:28:30;;;;;;;6.80;5.00;;;333.20;2329.60;;;;;;5049190;28;20483;-63
2023/05/07 04:30:56;;;;;;;9.30;4.63;;;333.10;2329.60;;;;;;5048799;28;20021;-63
2023/05/07 04:33:21;;;;;;;7.85;5.20;;;333.20;2329.60;;;;;;5049476;28;20115;-63
2023/05/07 04:35:47;;;;;;;8.73;5.53;;;333.40;2329.60;;;;;;5049236;28;20017;-61
2023/05/07 04:38:13;;;;;;;11.18;4.85;;;333.50;2329.60;;;;;;5049025;28;20028;-63
2023/05/07 04:40:38;;;;;;;7.38;6.32;;;333.70;2329.60;;;;;;5049359;28;20025;-63
2023/05/07 04:43:04;;;;;;;7.25;4.80;;;358.50;2329.60;;;;;;5048875;28;20140;-63
2023/05/07 04:45:30;;;;;;;18.52;11.85;;;358.70;2329.60;;;;;;5035117;28;20021;-63
2023/05/07 04:47:56;;;;;;;27.52;16.02;;;358.90;2329.60;;;;;;5049262;28;20047;-63
2023/05/07 04:50:24;;;;;;;15.60;10.63;;;359.10;2329.60;;;;;;5048764;28;20021;-63
2023/05/07 04:52:49;;;;;;;11.65;6.55;;;359.30;2329.60;;;;;;5049409;28;20055;-63
2023/05/07 04:55:15;;;;;;;7.30;4.45;;;436.00;2355.20;;;;;;5047461;28;20487;-62
2023/05/07 04:57:41;;;;;;;6.78;4.63;;;563.60;1996.80;;;;;;5048682;28;20075;-62
2023/05/07 05:00:11;;;;;;;5.70;4.45;;;640.30;1689.60;;;;;;5048738;28;20017;-63
2023/05/07 05:02:37;;;;;;;7.40;5.05;;;692.10;1510.40;;;;;;5048790;28;20387;-62
2023/05/07 05:05:02;;;;;;;5.63;4.70;;;742.50;1459.20;;;;;;5042316;28;20025;-64
2023/05/07 05:07:28;;;;;;;5.22;4.53;;;768.60;1356.80;;;;;;5029167;28;20127;-62
2023/05/07 05:09:55;;;;;;;6.90;5.18;;;794.30;1305.60;;;;;;5048702;28;20021;-62
2023/05/07 05:12:21;;;;;;;5.72;4.78;;;844.80;1254.40;;;;;;5048409;28;20112;-63
2023/05/07 05:14:47;;;;;;;6.72;5.03;;;845.70;1203.20;;;;;;5048511;28;20060;-62
2023/05/07 05:17:12;;;;;;;5.18;4.63;;;871.00;1152.00;;;;;;5048679;28;20483;-62
2023/05/07 05:19:38;;;;;;;5.95;5.35;;;871.30;1126.40;;;;;;5048846;28;20052;-62
2023/05/07 05:22:04;;;;;;;5.38;4.88;;;896.00;1126.40;;;;;;5048577;28;20029;-62
2023/05/07 05:24:30;;;;;;;5.55;4.93;;;896.60;1100.80;;;;;;5048388;28;20111;-61
2023/05/07 05:26:56;;;;;;;5.13;4.63;;;896.40;1100.80;;;;;;5048631;28;20116;-62
2023/05/07 05:29:22;;;;;;;5.53;5.03;;;896.70;1075.20;;;;;;5048719;28;20574;-63
2023/05/07 05:31:48;;;;;;;6.13;5.53;;;896.20;1100.80;;;;;;5049650;28;20624;-64
2023/05/07 05:34:13;;;;;;;5.40;4.90;;;896.80;1075.20;;;;;;5052159;28;20106;-63
2023/05/07 05:36:39;;;;;;;6.05;5.53;;;922.50;1075.20;;;;;;5052499;28;20074;-63
2023/05/07 05:39:05;;;;;;;8.07;6.15;;;922.50;1049.60;;;;;;5052194;28;20116;-63
2023/05/07 05:41:31;;;;;;;8.82;4.75;;;948.00;1024.00;;;;;;5052059;28;20025;-63
2023/05/07 05:43:57;;;;;;;6.35;5.30;;;972.80;1049.60;;;;;;5052272;28;20020;-63
2023/05/07 05:46:23;;;;;;;6.50;5.28;;;973.20;998.40;;;;;;5051913;28;20067;-63
2023/05/07 05:48:48;;;;;;;7.13;6.40;;;998.80;998.40;;;;;;5052375;28;20017;-62
2023/05/07 05:51:14;;;;;;;5.32;4.80;;;1024.20;947.20;;;;;;5051677;28;20028;-62
2023/05/07 05:53:40;;;;;;;6.10;5.03;;;1024.30;947.20;;;;;;5051909;28;20033;-61
2023/05/07 05:56:06;;;;;;;6.70;6.20;;;1050.10;972.80;;;;;;5051656;28;20048;-62
2023/05/07 05:58:32;;;;;;;22.80;20.63;;;1049.90;972.80;;;;;;5051899;28;20036;-62
2023/05/07 06:00:58;;;;;;;6.22;5.72;;;1049.60;972.80;;;;;;5051753;28;20025;-63
2023/05/07 06:03:24;;;;;;;8.85;7.13;;;1050.00;972.80;;;;;;5051586;28;20077;-63
2023/05/07 06:05:50;;;;;;;6.95;6.43;;;1049.70;972.80;;;;;;5052125;28;20025;-61
2023/05/07 06:08:15;;;;;;;7.50;6.82;;;1050.50;921.60;;;;;;5051496;28;20456;-63
2023/05/07 06:10:41;;;;;;;6.78;6.28;;;1075.20;947.20;;;;;;5051451;28;20056;-64
2023/05/07 06:13:07;;;;;;;6.85;6.35;;;1075.40;947.20;;;;;;5052215;28;20048;-63
2023/05/07 06:15:33;;;;;;;8.13;7.38;;;1101.00;921.60;;;;;;5039648;28;20384;-63
2023/05/07 06:17:58;;;;;;;7.57;7.03;;;1100.80;947.20;;;;;;5037081;28;20140;-63
2023/05/07 06:20:24;;;;;;;8.02;7.43;;;1101.50;896.00;;;;;;5027685;28;20022;-64
2023/05/07 06:22:50;;;;;;;8.38;7.75;;;1101.60;921.60;;;;;;5049094;28;20025;-64
2023/05/07 06:25:15;;;;;;;8.05;7.35;;;1101.60;896.00;;;;;;5051708;28;20548;-63
2023/05/07 06:27:41;;;;;;;7.47;6.88;;;1126.40;921.60;;;;;;5051184;28;20136;-65
2023/05/07 06:30:08;;;;;;;9.23;8.52;;;1126.90;896.00;;;;;;5051491;28;20044;-64
2023/05/07 06:32:33;;;;;;;9.25;8.50;;;1152.20;870.40;;;;;;5051105;28;20102;-64
2023/05/07 06:34:59;;;;;;;8.50;7.70;;;1126.50;921.60;;;;;;5051506;28;20053;-64
2023/05/07 06:37:25;;;;;;;8.32;7.63;;;1126.40;921.60;;;;;;5051092;28;20013;-65
2023/05/07 06:39:51;;;;;;;10.13;9.43;;;1152.70;844.80;;;;;;5051499;28;20116;-64
2023/05/07 06:42:16;;;;;;;9.85;9.15;;;1152.40;870.40;;;;;;5051445;28;20112;-65
2023/05/07 06:44:42;;;;;;;11.27;10.43;;;1126.80;896.00;;;;;;5050073;28;20471;-64
2023/05/07 06:47:08;;;;;;;10.65;9.68;;;1152.90;844.80;;;;;;5050546;28;20029;-64
2023/05/07 06:49:33;;;;;;;13.23;12.23;;;1152.60;844.80;;;;;;5050627;28;20087;-64
2023/05/07 06:51:59;;;;;;;13.15;11.82;;;1178.50;793.60;;;;;;5051070;28;20043;-64
2023/05/07 06:54:25;;;;;;;11.82;10.68;;;1152.90;844.80;;;;;;5050750;28;20025;-64
2023/05/07 06:56:51;;;;;;;15.60;9.60;;;1178.10;819.20;;;;;;5050604;28;20077;-64
2023/05/07 06:59:16;;;;;;;11.32;10.20;;;1203.30;819.20;;;;;;5050746;28;20426;-64
2023/05/07 07:01:42;;;;;;;11.73;10.50;;;1101.30;921.60;;;;;;5050477;28;20033;-64
2023/05/07 07:04:08;;;;;;;11.13;10.15;;;1126.50;921.60;;;;;;5050645;28;20031;-64
2023/05/07 07:06:33;;;;;;;10.60;9.57;;;1126.90;896.00;;;;;;5050300;28;20116;-63
2023/05/07 07:09:00;;;;;;;10.98;9.90;;;1101.50;896.00;;;;;;5050779;28;20399;-63
2023/05/07 07:11:26;;;;;;;10.32;9.63;;;1101.10;896.00;;;;;;5045695;28;20356;-66
2023/05/07 07:13:54;;;;;;;10.52;9.48;;;1075.70;921.60;;;;;;5042133;28;20025;-64
2023/05/07 07:16:20;;;;;;;10.93;10.10;;;1101.50;896.00;;;;;;5050210;28;20025;-63
2023/05/07 07:18:46;;;;;;;10.38;9.55;;;1126.90;896.00;;;;;;5050313;28;20021;-63
2023/05/07 07:21:12;;;;;;;10.55;9.45;;;1127.00;896.00;;;;;;5050098;28;20032;-64
2023/05/07 07:23:37;;;;;;;11.18;10.27;;;1152.60;844.80;;;;;;5050597;28;20391;-64
2023/05/07 07:26:03;;;;;;;11.80;10.90;;;1152.90;844.80;;;;;;5050193;28;20028;-64
2023/05/07 07:28:29;;;;;;;70.43;64.38;;;1152.90;844.80;;;;;;5047086;28;20247;-64
2023/05/07 07:30:54;;;;;;;14.60;13.50;;;1152.10;870.40;;;;;;5050145;28;20411;-63
2023/05/07 07:33:20;;;;;;;26.88;24.48;;;1178.00;844.80;;;;;;5050546;28;20092;-64
2023/05/07 07:35:46;;;;;;;13.02;12.02;;;1178.10;819.20;;;;;;5049789;28;20477;-63
2023/05/07 07:38:11;;;;;;;9.82;9.07;;;1203.80;819.20;;;;;;5049810;28;20025;-64
2023/05/07 07:40:39;;;;;;;11.20;10.50;;;1203.40;819.20;;;;;;5049985;28;20021;-63
2023/05/07 07:43:05;;;;;;;11.02;10.13;;;1228.90;819.20;;;;;;5049991;28;20040;-63
2023/05/07 07:45:31;;;;;;;12.35;11.07;;;1178.20;819.20;;;;;;5049346;28;20021;-65
2023/05/07 07:47:57;;;;;;;11.68;10.77;;;1152.50;844.80;;;;;;5050039;28;20253;-64
2023/05/07 07:50:22;;;;;;;11.90;11.10;;;1177.60;844.80;;;;;;5036174;28;20021;-64
2023/05/07 07:52:48;;;;;;;11.88;10.80;;;1178.20;819.20;;;;;;5050089;28;20111;-63
2023/05/07 07:55:20;;;;;;;13.63;12.40;;;1177.60;844.80;;;;;;5048265;28;20040;-64
2023/05/07 07:57:46;;;;;;;13.98;12.77;;;1152.50;844.80;;;;;;5050219;28;20116;-64
2023/05/07 08:00:12;;;;;;;11.30;10.55;;;1152.40;870.40;;;;;;5049379;28;20111;-64
2023/05/07 08:02:38;;;;;;;11.27;10.48;;;1152.10;870.40;;;;;;5050064;28;20061;-63
2023/05/07 08:05:04;;;;;;;10.52;9.73;;;1152.90;844.80;;;;;;5036670;28;20520;-64
2023/05/07 08:07:30;;;;;;;11.85;10.70;;;1178.10;819.20;;;;;;5030393;28;20045;-63
2023/05/07 08:09:55;;;;;;;12.00;11.02;;;1177.80;844.80;;;;;;5029261;28;20022;-64
2023/05/07 08:12:21;;;;;;;12.63;11.65;;;1178.10;819.20;;;;;;5040634;28;20028;-65
2023/05/07 08:14:47;;;;;;;11.95;10.80;;;1178.10;819.20;;;;;;5049845;28;20540;-64
2023/05/07 08:17:15;;;;;;;12.38;11.27;;;1178.10;793.60;;;;;;5036339;28;20028;-64
2023/05/07 08:19:41;;;;;;;13.20;11.88;;;1127.10;870.40;;;;;;5032006;28;20025;-64
2023/05/07 08:22:07;;;;;;;13.38;12.18;;;1126.70;870.40;;;;;;5044402;28;20033;-64
2023/05/07 08:24:33;;;;;;;10.30;9.30;;;1050.00;947.20;;;;;;5048938;28;20107;-63
2023/05/07 08:26:58;;;;;;;11.85;9.15;;;973.70;947.20;;;;;;5049113;28;20041;-62
2023/05/07 08:29:24;;;;;;;9.15;8.25;;;921.80;1049.60;;;;;;5043724;28;20024;-63
2023/05/07 08:31:50;;;;;;;9.18;8.25;;;870.80;1126.40;;;;;;5049328;28;20036;-63
2023/05/07 08:34:15;;;;;;;11.30;7.82;;;870.40;1152.00;;;;;;5048954;28;20349;-64
2023/05/07 08:36:46;;;;;;;20.45;12.80;;;845.00;1203.20;;;;;;5049357;28;20106;-64
2023/05/07 08:39:11;;;;;;;7.57;6.65;;;820.00;1203.20;;;;;;5048903;28;20410;-63
2023/05/07 08:41:37;;;;;;;9.30;7.40;;;794.00;1254.40;;;;;;5049147;28;20035;-68
2023/05/07 08:44:06;;;;;;;8.55;7.65;;;768.50;1305.60;;;;;;5022676;28;20074;-67
2023/05/07 08:46:32;;;;;;;10.93;7.53;;;768.10;1305.60;;;;;;5048576;28;20029;-67
2023/05/07 08:48:58;;;;;;;8.40;5.97;;;743.10;1331.20;;;;;;5049105;28;20025;-66
2023/05/07 08:51:24;;;;;;;9.90;7.43;;;768.10;1356.80;;;;;;5048685;28;20032;-66
2023/05/07 08:53:50;;;;;;;10.85;7.15;;;743.30;1331.20;;;;;;5049130;28;20281;-65
2023/05/07 08:56:18;;;;;;;9.38;7.97;;;743.30;1382.40;;;;;;5048579;28;20045;-66
2023/05/07 08:58:44;;;;;;;11.25;7.05;;;768.30;1356.80;;;;;;5048652;28;20041;-66
2023/05/07 09:01:12;;;;;;;9.63;6.63;;;;;;;;;;5048937;28;20029;-65
2023/05/07 09:03:39;;;;;;;7.00;6.28;;;;;;;;;;5039654;28;20163;-66
2023/05/07 09:06:05;;;;;;;6.47;5.75;;;;;;;;;;5044177;28;20032;-66
2023/05/07 09:08:33;;;;;;;9.52;6.80;;;743.30;1382.40;;;;;;5052247;28;20029;-66
2023/05/07 09:10:59;;;;;;;6.65;5.63;;;742.70;1408.00;;;;;;5052415;28;20025;-65
2023/05/07 09:13:25;;;;;;;6.20;5.60;;;717.70;1382.40;;;;;;5052444;28;20371;-66
2023/05/07 09:15:51;;;;;;;9.85;5.85;;;742.40;1408.00;;;;;;5052444;28;20404;-66
2023/05/07 09:18:16;;;;;;;8.38;5.90;;;742.50;1408.00;;;;;;5049846;28;20017;-65
2023/05/07 09:20:42;;;;;;;6.57;5.40;;;742.60;1382.40;;;;;;5051933;28;20044;-66
2023/05/07 09:23:08;;;;;;;6.28;5.68;;;742.80;1408.00;;;;;;5052289;28;20025;-64
2023/05/07 09:25:36;;;;;;;8.50;6.63;;;742.80;1382.40;;;;;;5051615;28;20074;-66
2023/05/07 09:28:03;;;;;;;7.10;6.15;;;742.90;1382.40;;;;;;5046906;28;20445;-66
2023/05/07 09:30:30;;;;;;;6.20;5.38;;;742.90;1356.80;;;;;;5038711;28;20376;-65
2023/05/07 09:32:59;;;;;;;5.97;5.38;;;742.80;1382.40;;;;;;5051311;28;20039;-65
2023/05/07 09:35:27;;;;;;;6.70;5.53;;;742.90;1382.40;;;;;;5051738;28;20454;-64
2023/05/07 09:37:58;;;;;;;6.32;4.65;;;742.50;1382.40;;;;;;5052446;28;20025;-66
2023/05/07 09:40:26;;;;;;;5.80;4.97;;;717.70;1356.80;;;;;;5048780;28;20021;-65
2023/05/07 09:42:52;;;;;;;10.57;5.03;;;742.40;1408.00;;;;;;5042808;28;20386;-64
2023/05/07 09:45:28;;;;;;;6.00;5.20;;;717.70;1382.40;;;;;;5050102;28;20017;-65
2023/05/07 09:47:58;;;;;;;6.15;5.20;;;717.70;1331.20;;;;;;5044457;28;20044;-63
2023/05/07 09:50:36;;;;;;;6.15;4.50;;;717.40;1356.80;;;;;;5042815;28;20713;-61
2023/05/07 09:53:04;;;;;;;16.30;10.25;;;717.40;1356.80;;;;;;5050618;28;20087;-67
2023/05/07 09:55:30;;;;;;;6.82;5.53;;;;;;;;;;5050074;28;20041;-62
2023/05/07 09:57:57;;;;;;;6.00;4.60;;;717.40;1382.40;;;;;;5050070;28;20033;-63
2023/05/07 10:00:23;;;;;;;5.28;4.72;;;717.70;1382.40;;;;;;5050100;28;20029;-63
2023/05/07 10:02:52;;;;;;;7.22;4.55;;;717.20;1331.20;;;;;;5050531;28;20033;-64
2023/05/07 10:05:22;;;;;;;6.45;5.20;;;717.40;1331.20;;;;;;5050153;28;20092;-64
2023/05/07 10:07:48;;;;;;;4.57;3.47;;;717.30;1331.20;;;;;;5050677;28;20098;-64
2023/05/07 10:10:15;;;;;;;6.05;4.20;;;717.30;1305.60;;;;;;5049469;28;20558;-64
2023/05/07 10:12:41;;;;;;;5.13;3.80;;;717.50;1280.00;;;;;;5050353;28;20048;-64
2023/05/07 10:15:09;;;;;;;5.35;3.97;;;717.00;1228.80;;;;;;5050001;28;20076;-63
2023/05/07 10:17:38;;;;;;;4.85;3.65;;;716.90;1254.40;;;;;;5049720;28;20375;-63
2023/05/07 10:20:05;;;;;;;7.03;5.60;;;717.20;1305.60;;;;;;5035772;28;20532;-63
2023/05/07 10:22:38;;;;;;;5.97;5.10;;;717.20;1280.00;;;;;;5049616;28;20433;-63
2023/05/07 10:25:06;;;;;;;;;;;717.00;1356.80;;;;;;5049685;28;20103;-61
2023/05/07 10:27:32;;;;;;;6.60;4.68;;;691.50;1382.40;;;;;;5049048;28;19924;-66
2023/05/07 10:30:29;;;;;;;5.95;4.85;;;691.30;1408.00;;;;;;5049570;28;20025;-66
2023/05/07 10:33:05;;;;;;;9.45;8.10;;;691.40;1433.60;;;;;;5025787;28;20036;-67
2023/05/07 10:35:37;;;;;;;11.98;9.82;;;691.80;1408.00;;;;;;5049715;28;20036;-66
2023/05/07 10:38:04;;;;;;;17.10;13.33;;;691.90;1382.40;;;;;;5049367;28;20025;-66
2023/05/07 10:40:31;;;;;;;9.00;6.75;;;691.90;1382.40;;;;;;5049072;28;20270;-67
2023/05/07 10:43:01;;;;;;;7.28;5.68;;;692.10;1382.40;;;;;;5048000;28;20573;-67
2023/05/07 10:45:28;;;;;;;7.25;4.60;;;691.90;1433.60;;;;;;5049357;28;20352;-67
2023/05/07 10:48:12;;;;;;;4.97;4.22;;;716.80;1433.60;;;;;;5049231;28;20037;-66
2023/05/07 10:50:42;;;;;;;5.82;4.93;;;717.10;1356.80;;;;;;5024460;28;20040;-66
2023/05/07 10:53:17;;;;;;;6.22;4.85;;;716.90;1331.20;;;;;;5048872;28;20060;-65
2023/05/07 10:55:44;;;;;;;5.97;4.60;;;691.90;1331.20;;;;;;5048336;28;20052;-66
2023/05/07 10:58:27;;;;;;;6.07;4.30;;;692.10;1356.80;;;;;;5049312;28;20032;-67
2023/05/07 11:00:58;;;;;;;9.18;4.53;;;691.90;1356.80;;;;;;5048788;28;20035;-67
2023/05/07 11:03:24;;;;;;;6.72;4.32;;;691.70;1356.80;;;;;;5048720;28;20025;-67
2023/05/07 11:06:09;;;;;;;4.93;4.00;;;691.70;1356.80;;;;;;5049225;28;20098;-66
2023/05/07 11:08:56;;;;;;;8.05;4.63;;;691.70;1331.20;;;;;;5048714;28;20041;-66
2023/05/07 11:11:44;;;;;;;6.18;4.18;;;691.90;1382.40;;;;;;5048403;28;20061;-67
2023/05/07 11:14:10;;;;;;;4.80;4.25;;;692.10;1408.00;;;;;;5048705;28;20032;-67
2023/05/07 11:16:38;;;;;;;7.60;3.88;;;716.80;1459.20;;;;;;5048956;28;20025;-67
2023/05/07 11:19:04;;;;;;;4.88;3.67;;;716.80;1433.60;;;;;;5049085;28;20025;-67
2023/05/07 11:21:37;;;;;;;6.28;4.07;;;716.90;1382.40;;;;;;5048336;28;20033;-66
2023/05/07 11:24:13;;;;;;;6.95;4.20;;;691.90;1331.20;;;;;;5048813;28;20112;-67
2023/05/07 11:26:47;;;;;;;5.20;4.00;;;692.10;1356.80;;;;;;5048546;28;20179;-67
2023/05/07 11:29:15;;;;;;;8.25;4.72;;;691.80;1305.60;;;;;;5047982;28;20772;-66
2023/05/07 11:31:41;;;;;;;5.10;4.05;;;;;;;;;;5048796;28;20159;-66
2023/05/07 11:34:08;;;;;;;5.28;4.30;;;692.10;1331.20;;;;;;5048534;28;20021;-67
2023/05/07 11:36:34;;;;;;;5.80;3.88;;;691.90;1356.80;;;;;;5048086;28;20035;-67
2023/05/07 11:39:00;;;;;;;5.28;4.38;;;691.90;1331.20;;;;;;5048411;28;20058;-66
2023/05/07 11:41:39;;;;;;;5.50;4.15;;;691.90;1305.60;;;;;;5048377;28;20436;-67
2023/05/07 11:44:05;;;;;;;4.88;4.18;;;691.60;1305.60;;;;;;5021760;28;20020;-66
2023/05/07 11:46:32;;;;;;;6.05;4.30;;;691.80;1305.60;;;;;;5035108;28;20045;-67
2023/05/07 11:48:57;;;;;;;4.82;4.25;;;692.00;1305.60;;;;;;5034893;28;20067;-68
2023/05/07 11:51:26;;;;;;;6.25;4.60;;;691.90;1280.00;;;;;;5047708;28;20024;-67
2023/05/07 11:53:52;;;;;;;6.82;4.30;;;691.90;1305.60;;;;;;5022579;28;20112;-67
2023/05/07 11:56:18;;;;;;;6.80;4.22;;;692.10;1331.20;;;;;;5047925;28;20127;-66
2023/05/07 11:58:46;;;;;;;5.72;4.10;;;691.80;1305.60;;;;;;5048082;28;20021;-67
2023/05/07 12:01:13;;;;;;;8.95;4.20;;;692.10;1356.80;;;;;;5047179;28;20021;-67
2023/05/07 12:03:45;;;;;;;6.57;4.45;;;692.10;1331.20;;;;;;5048042;28;20101;-66
2023/05/07 12:06:12;;;;;;;5.97;3.80;;;716.80;1408.00;;;;;;5047162;28;20025;-67
2023/05/07 12:08:40;;;;;;;4.78;4.07;;;692.10;1305.60;;;;;;5047576;28;20025;-68
2023/05/07 12:11:25;;;;;;;7.45;4.13;;;692.10;1305.60;;;;;;5047475;28;20025;-69
2023/05/07 12:13:51;;;;;;;6.25;3.83;;;691.70;1280.00;;;;;;5047024;28;20021;-66